createdAt,value
2019-04-25T00:04:34.045Z,11.10
2019-04-25T00:07:16.284Z,11.00
2019-04-25T00:09:58.779Z,11.00
2019-04-25T00:12:43.187Z,11.00
2019-04-25T00:15:25.589Z,10.90
2019-04-25T00:18:07.865Z,10.80
2019-04-25T00:20:54.380Z,10.80
2019-04-25T00:23:37.223Z,10.80
2019-04-25T00:29:18.807Z,10.80
2019-04-25T00:32:01.690Z,10.70
2019-04-25T00:34:45.440Z,10.70
2019-04-25T00:37:27.566Z,10.70
2019-04-25T00:42:53.799Z,10.50
2019-04-25T00:45:35.689Z,10.40
2019-04-25T00:48:18.362Z,10.30
2019-04-25T00:51:01.744Z,10.20
2019-04-25T00:53:45.027Z,10.10
2019-04-25T00:56:27.258Z,10.00
2019-04-25T01:05:46.075Z,10.20
2019-04-25T01:08:28.385Z,10.30
2019-04-25T01:11:11.503Z,10.30
2019-04-25T01:13:54.440Z,10.10
2019-04-25T01:16:36.899Z,10.20
2019-04-25T01:19:18.938Z,10.10
2019-04-25T01:22:01.176Z,10.10
2019-04-25T01:24:43.956Z,10.10
2019-04-25T01:27:26.390Z,10.10
2019-04-25T01:30:08.287Z,10.20
2019-04-25T01:32:50.845Z,10.10
2019-04-25T01:44:51.683Z,10.10
2019-04-25T01:47:34.044Z,10.10
2019-04-25T01:50:15.951Z,10.10
2019-04-25T01:52:58.732Z,10.20
2019-04-25T01:55:53.015Z,10.10
2019-04-25T01:58:25.572Z,10.10
2019-04-25T02:01:08.183Z,10.10
2019-04-25T02:03:50.416Z,10.10
2019-04-25T02:06:33.564Z,10.00
2019-04-25T02:09:15.641Z,10.00
2019-04-25T02:12:20.192Z,10.00
2019-04-25T02:15:03.975Z,9.80
2019-04-25T02:17:46.290Z,9.80
2019-04-25T02:20:28.781Z,9.80
2019-04-25T02:23:10.854Z,9.80
2019-04-25T02:26:06.101Z,9.70
2019-04-25T02:28:36.063Z,9.60
2019-04-25T02:31:18.469Z,9.50
2019-04-25T02:34:03.273Z,9.50
2019-04-25T02:36:47.078Z,9.50
2019-04-25T02:39:27.863Z,9.60
2019-04-25T02:42:09.813Z,9.60
2019-04-25T02:47:56.615Z,9.60
2019-04-25T02:50:46.288Z,9.70
2019-04-25T02:53:49.335Z,9.70
2019-04-25T02:56:37.710Z,9.60
2019-04-25T02:59:15.153Z,9.50
2019-04-25T03:01:58.987Z,9.50
2019-04-25T03:04:44.203Z,9.50
2019-04-25T03:07:26.167Z,9.50
2019-04-25T03:10:09.808Z,9.50
2019-04-25T03:12:51.567Z,9.60
2019-04-25T03:15:34.233Z,9.60
2019-04-25T03:18:19.112Z,9.50
2019-04-25T03:21:24.975Z,9.60
2019-04-25T03:24:26.247Z,9.70
2019-04-25T03:27:09.159Z,9.80
2019-04-25T03:29:50.903Z,9.60
2019-04-25T03:32:35.567Z,9.60
2019-04-25T03:35:17.346Z,9.60
2019-04-25T03:37:59.066Z,9.60
2019-04-25T03:40:41.465Z,9.60
2019-04-25T03:43:23.317Z,9.70
2019-04-25T03:46:06.173Z,9.60
2019-04-25T03:48:49.057Z,9.50
2019-04-25T03:51:31.319Z,9.40
2019-04-25T03:54:14.304Z,9.30
2019-04-25T03:56:56.297Z,9.40
2019-04-25T03:59:38.427Z,9.40
2019-04-25T04:02:20.349Z,9.40
2019-04-25T04:05:04.587Z,9.30
2019-04-25T04:07:45.269Z,9.20
2019-04-25T04:10:27.717Z,9.20
2019-04-25T04:13:10.661Z,9.20
2019-04-25T04:15:53.288Z,9.10
2019-04-25T04:18:39.062Z,9.30
2019-04-25T04:27:37.947Z,9.20
2019-04-25T04:30:18.607Z,9.20
2019-04-25T04:33:08.564Z,9.30
2019-04-25T04:36:19.057Z,9.30
2019-04-25T04:45:58.526Z,9.30
2019-04-25T04:48:48.054Z,9.20
2019-04-25T04:55:04.912Z,9.30
2019-04-25T05:11:15.829Z,9.50
2019-04-25T05:14:26.672Z,9.60
2019-04-25T05:24:04.815Z,9.70
2019-04-25T05:27:15.417Z,9.60
2019-04-25T05:30:21.245Z,9.60
2019-04-25T05:33:04.002Z,9.60
2019-04-25T05:35:46.664Z,9.80
2019-04-25T05:38:29.372Z,9.80
2019-04-25T05:44:27.289Z,9.90
2019-04-25T05:47:09.580Z,10.00
2019-04-25T05:49:51.478Z,10.10
2019-04-25T05:52:33.838Z,10.20
2019-04-25T05:55:18.528Z,10.20
2019-04-25T05:57:59.415Z,10.30
2019-04-25T06:00:41.555Z,10.30
2019-04-25T06:03:24.918Z,10.40
2019-04-25T06:06:07.572Z,10.40
2019-04-25T06:08:55.074Z,10.30
2019-04-25T06:14:36.646Z,10.40
2019-04-25T06:17:24.803Z,10.50
2019-04-25T06:20:29.591Z,10.60
2019-04-25T06:23:36.820Z,10.70
2019-04-25T06:29:59.164Z,10.80
2019-04-25T06:32:58.928Z,10.80
2019-04-25T06:35:41.314Z,10.90
2019-04-25T06:38:26.071Z,10.90
2019-04-25T06:41:07.404Z,11.00
2019-04-25T06:43:51.100Z,11.00
2019-04-25T06:46:51.664Z,11.10
2019-04-25T06:49:37.359Z,11.20
2019-04-25T06:52:21.501Z,11.20
2019-04-25T06:55:04.112Z,11.30
2019-04-25T06:57:46.455Z,11.30
2019-04-25T07:00:30.077Z,11.40
2019-04-25T07:03:13.978Z,11.40
2019-04-25T07:05:57.140Z,11.50
2019-04-25T07:08:38.958Z,11.60
2019-04-25T07:11:21.013Z,11.60
2019-04-25T07:14:04.165Z,11.70
2019-04-25T07:16:46.406Z,11.70
2019-04-25T07:19:28.345Z,11.80
2019-04-25T07:22:10.430Z,11.90
2019-04-25T07:24:53.756Z,11.90
2019-04-25T07:34:23.968Z,12.10
2019-04-25T07:37:25.991Z,12.10
2019-04-25T07:40:08.292Z,12.20
2019-04-25T07:42:50.859Z,12.20
2019-04-25T07:45:34.569Z,12.30
2019-04-25T07:48:16.764Z,12.40
2019-04-25T07:50:58.720Z,12.40
2019-04-25T07:53:40.672Z,12.50
2019-04-25T07:56:24.129Z,12.50
2019-04-25T07:59:06.669Z,12.60
2019-04-25T08:01:48.632Z,12.60
2019-04-25T08:04:31.797Z,12.70
2019-04-25T08:07:14.257Z,12.70
2019-04-25T08:09:56.458Z,12.70
2019-04-25T08:12:39.408Z,12.80
2019-04-25T08:18:36.069Z,12.90
2019-04-25T08:21:18.763Z,12.90
2019-04-25T08:24:03.000Z,12.90
2019-04-25T08:26:46.044Z,12.90
2019-04-25T08:29:27.979Z,12.90
2019-04-25T08:32:10.645Z,12.90
2019-04-25T08:34:54.209Z,13.00
2019-04-25T08:37:36.610Z,13.00
2019-04-25T08:40:18.279Z,13.00
2019-04-25T08:43:00.416Z,13.00
2019-04-25T08:45:42.221Z,13.00
2019-04-25T08:48:27.189Z,13.00
2019-04-25T08:51:13.530Z,13.10
2019-04-25T08:54:01.426Z,13.10
2019-04-25T08:57:04.313Z,13.10
2019-04-25T09:03:05.961Z,13.10
2019-04-25T09:05:49.488Z,13.10
2019-04-25T09:08:31.484Z,13.20
2019-04-25T09:11:13.775Z,13.20
2019-04-25T09:13:56.659Z,13.20
2019-04-25T09:16:39.853Z,13.20
2019-04-25T09:19:21.648Z,13.20
2019-04-25T09:22:04.043Z,13.20
2019-04-25T09:24:46.066Z,13.20
2019-04-25T09:27:27.891Z,13.20
2019-04-25T09:30:09.690Z,13.20
2019-04-25T09:32:53.358Z,13.20
2019-04-25T09:38:18.208Z,13.30
2019-04-25T09:41:00.573Z,13.30
2019-04-25T09:43:42.387Z,13.20
2019-04-25T09:46:28.951Z,13.20
2019-04-25T09:49:16.289Z,13.20
2019-04-25T09:58:55.021Z,13.30
2019-04-25T10:01:56.512Z,13.30
2019-04-25T10:04:39.179Z,13.30
2019-04-25T10:07:21.497Z,13.30
2019-04-25T10:10:03.799Z,13.30
2019-04-25T10:12:45.835Z,13.30
2019-04-25T10:15:27.833Z,13.30
2019-04-25T10:18:09.963Z,13.30
2019-04-25T10:20:52.157Z,13.40
2019-04-25T10:23:34.853Z,13.40
2019-04-25T10:26:17.721Z,13.40
2019-04-25T10:29:00.128Z,13.40
2019-04-25T10:31:44.296Z,13.50
2019-04-25T10:34:26.068Z,13.50
2019-04-25T10:37:08.398Z,13.50
2019-04-25T10:42:29.211Z,13.50
2019-04-25T10:45:21.231Z,13.50
2019-04-25T10:47:56.282Z,13.60
2019-04-25T10:50:40.042Z,13.60
2019-04-25T10:53:23.485Z,13.60
2019-04-25T10:56:06.058Z,13.70
2019-04-25T10:58:48.422Z,13.70
2019-04-25T11:01:30.477Z,13.60
2019-04-25T11:07:34.350Z,13.70
2019-04-25T11:10:16.646Z,13.70
2019-04-25T11:12:59.071Z,13.70
2019-04-25T11:15:41.964Z,13.70
2019-04-25T11:18:25.487Z,13.80
2019-04-25T11:21:07.187Z,13.80
2019-04-25T11:23:50.031Z,13.80
2019-04-25T11:26:34.488Z,13.80
2019-04-25T11:29:15.708Z,13.90
2019-04-25T11:31:58.057Z,13.90
2019-04-25T11:34:40.357Z,13.90
2019-04-25T11:37:24.030Z,13.90
2019-04-25T11:40:27.423Z,13.90
2019-04-25T11:43:29.058Z,13.90
2019-04-25T11:46:10.882Z,13.90
2019-04-25T11:48:54.692Z,13.90
2019-04-25T11:51:36.861Z,13.90
2019-04-25T11:54:19.306Z,14.00
2019-04-25T11:57:01.230Z,14.00
2019-04-25T11:59:46.596Z,14.00
2019-04-25T12:02:27.200Z,14.00
2019-04-25T12:05:09.816Z,14.00
2019-04-25T12:07:51.842Z,14.10
2019-04-25T12:10:34.676Z,14.00
2019-04-25T12:13:17.539Z,14.00
2019-04-25T12:15:59.712Z,14.10
2019-04-25T12:18:41.675Z,14.10
2019-04-25T12:21:24.047Z,14.10
2019-04-25T12:24:06.103Z,14.10
2019-04-25T12:26:48.657Z,14.20
2019-04-25T12:29:31.156Z,14.20
2019-04-25T12:32:14.178Z,14.20
2019-04-25T12:34:56.221Z,14.20
2019-04-25T12:37:37.993Z,14.20
2019-04-25T12:40:20.278Z,14.20
2019-04-25T12:43:03.133Z,14.20
2019-04-25T12:49:16.565Z,14.20
2019-04-25T12:51:58.904Z,14.20
2019-04-25T12:54:41.294Z,14.30
2019-04-25T12:57:24.075Z,14.40
2019-04-25T13:00:06.515Z,14.40
2019-04-25T13:02:48.412Z,14.40
2019-04-25T13:05:30.345Z,14.40
2019-04-25T13:08:14.294Z,14.40
2019-04-25T13:11:07.549Z,14.40
2019-04-25T13:13:40.133Z,14.30
2019-04-25T13:16:24.236Z,14.30
2019-04-25T13:19:16.481Z,14.40
2019-04-25T13:21:49.684Z,14.40
2019-04-25T13:24:31.627Z,14.40
2019-04-25T13:33:33.551Z,14.40
2019-04-25T13:36:16.327Z,14.60
2019-04-25T13:38:58.578Z,14.60
2019-04-25T13:41:40.714Z,14.60
2019-04-25T13:44:24.336Z,14.60
2019-04-25T13:47:06.375Z,14.60
2019-04-25T13:49:48.543Z,14.60
2019-04-25T13:52:31.324Z,14.50
2019-04-25T13:55:13.749Z,14.50
2019-04-25T13:57:55.559Z,14.50
2019-04-25T14:00:38.026Z,14.60
2019-04-25T14:03:20.669Z,14.60
2019-04-25T14:06:04.619Z,14.80
2019-04-25T14:08:46.764Z,14.80
2019-04-25T14:11:30.065Z,14.90
2019-04-25T14:14:12.263Z,15.00
2019-04-25T14:17:15.998Z,15.00
2019-04-25T14:23:36.186Z,15.00
2019-04-25T14:26:18.691Z,14.90
2019-04-25T14:29:00.688Z,14.80
2019-04-25T14:31:48.238Z,14.70
2019-04-25T14:34:27.841Z,14.70
2019-04-25T14:37:09.609Z,14.70
2019-04-25T14:39:51.703Z,14.80
2019-04-25T14:42:34.033Z,14.90
2019-04-25T14:45:16.643Z,14.90
2019-04-25T14:47:58.861Z,14.90
2019-04-25T14:50:41.349Z,14.90
2019-04-25T14:53:24.229Z,14.90
2019-04-25T14:56:25.913Z,14.90
2019-04-25T14:59:08.680Z,14.90
2019-04-25T15:01:50.373Z,15.30
2019-04-25T15:04:33.155Z,15.20
2019-04-25T15:07:15.354Z,15.10
2019-04-25T15:09:57.976Z,15.20
2019-04-25T15:12:40.055Z,15.40
2019-04-25T15:15:22.351Z,15.70
2019-04-25T15:18:05.927Z,15.80
2019-04-25T15:20:48.158Z,15.60
2019-04-25T15:23:30.180Z,15.50
2019-04-25T15:26:12.101Z,15.50
2019-04-25T15:28:54.962Z,15.70
2019-04-25T15:31:36.783Z,15.70
2019-04-25T15:34:18.850Z,15.50
2019-04-25T15:37:26.498Z,15.40
2019-04-25T15:40:34.456Z,15.50
2019-04-25T15:46:30.287Z,15.60
2019-04-25T15:49:31.634Z,15.60
2019-04-25T15:52:13.783Z,15.60
2019-04-25T15:55:06.390Z,15.40
2019-04-25T15:57:40.811Z,15.50
2019-04-25T16:03:38.886Z,15.30
2019-04-25T16:06:21.372Z,15.30
2019-04-25T16:09:04.574Z,15.20
2019-04-25T16:11:46.794Z,15.10
2019-04-25T16:14:28.771Z,15.30
2019-04-25T16:17:10.975Z,15.40
2019-04-25T16:19:52.994Z,15.30
2019-04-25T16:22:36.556Z,15.30
2019-04-25T16:25:20.015Z,15.20
2019-04-25T16:28:02.120Z,15.10
2019-04-25T16:30:44.082Z,15.10
2019-04-25T16:33:26.443Z,15.20
2019-04-25T16:36:09.265Z,15.20
2019-04-25T16:38:51.930Z,15.10
2019-04-25T16:41:33.838Z,15.00
2019-04-25T16:44:18.746Z,14.90
2019-04-25T16:47:00.673Z,14.90
2019-04-25T16:49:42.826Z,14.90
2019-04-25T16:52:25.638Z,14.80
2019-04-25T16:55:08.494Z,14.80
2019-04-25T16:57:49.147Z,14.80
2019-04-25T17:00:57.699Z,14.70
2019-04-25T17:07:03.744Z,14.70
2019-04-25T17:13:09.289Z,14.80
2019-04-25T17:16:37.428Z,14.90
2019-04-25T17:19:45.955Z,14.90
2019-04-25T17:32:30.682Z,15.00
2019-04-25T17:35:59.339Z,15.10
2019-04-25T17:39:07.886Z,15.20
2019-04-25T17:41:57.449Z,15.40
2019-04-25T17:44:59.162Z,15.40
2019-04-25T17:47:52.326Z,15.50
2019-04-25T17:50:25.800Z,15.60
2019-04-25T17:53:07.790Z,15.70
2019-04-25T17:55:49.992Z,15.70
2019-04-25T17:58:33.291Z,15.70
2019-04-25T18:01:19.583Z,15.80
2019-04-25T18:04:01.801Z,15.80
2019-04-25T18:06:44.381Z,15.60
2019-04-25T18:09:26.569Z,15.60
2019-04-25T18:12:08.643Z,15.50
2019-04-25T18:14:51.077Z,15.50
2019-04-25T18:17:33.943Z,15.50
2019-04-25T18:20:21.041Z,15.50
2019-04-25T18:29:46.374Z,15.50
2019-04-25T18:32:32.117Z,15.40
2019-04-25T18:44:50.990Z,15.30
2019-04-25T18:47:25.214Z,15.30
2019-04-25T18:54:03.889Z,15.20
2019-04-25T18:56:52.709Z,15.10
2019-04-25T19:03:30.513Z,15.20
2019-04-25T19:06:15.734Z,15.20
2019-04-25T19:08:58.843Z,15.20
2019-04-25T19:11:41.048Z,15.20
2019-04-25T19:14:22.967Z,15.10
2019-04-25T19:17:06.699Z,15.10
2019-04-25T19:19:48.625Z,15.00
2019-04-25T19:22:30.949Z,15.00
2019-04-25T19:25:13.269Z,14.90
2019-04-25T19:27:55.203Z,14.90
2019-04-25T19:30:37.219Z,14.80
2019-04-25T19:33:19.334Z,14.80
2019-04-25T19:36:01.523Z,14.80
2019-04-25T19:38:43.951Z,14.80
2019-04-25T19:45:01.270Z,14.70
2019-04-25T19:47:43.280Z,14.70
2019-04-25T19:50:25.540Z,14.70
2019-04-25T19:53:07.830Z,14.70
2019-04-25T19:55:49.926Z,14.70
2019-04-25T19:58:32.118Z,14.60
2019-04-25T20:01:14.081Z,14.60
2019-04-25T20:04:15.600Z,14.60
2019-04-25T20:07:16.576Z,14.60
2019-04-25T20:10:17.813Z,14.60
2019-04-25T20:13:00.276Z,14.60
2019-04-25T20:15:44.005Z,14.60
2019-04-25T20:18:26.318Z,14.60
2019-04-25T20:21:08.250Z,14.60
2019-04-25T20:23:50.201Z,14.60
2019-04-25T20:26:32.585Z,14.50
2019-04-25T20:29:14.629Z,14.50
2019-04-25T20:31:56.752Z,14.40
2019-04-25T20:34:39.271Z,14.40
2019-04-25T20:37:21.897Z,14.40
2019-04-25T20:40:03.918Z,14.40
2019-04-25T20:42:46.977Z,14.40
2019-04-25T20:45:29.220Z,14.30
2019-04-25T20:48:11.735Z,14.30
2019-04-25T20:50:54.518Z,14.20
2019-04-25T20:53:36.524Z,14.20
2019-04-25T20:56:18.465Z,14.20
2019-04-25T20:59:00.548Z,14.10
2019-04-25T21:01:42.884Z,14.10
2019-04-25T21:04:43.702Z,14.10
2019-04-25T21:07:25.618Z,14.00
2019-04-25T21:10:07.724Z,14.00
2019-04-25T21:12:50.297Z,14.00
2019-04-25T21:15:57.025Z,13.90
2019-04-25T21:19:04.576Z,13.90
2019-04-25T21:22:06.615Z,13.90
2019-04-25T21:24:49.481Z,13.80
2019-04-25T21:27:32.127Z,13.80
2019-04-25T21:30:13.970Z,13.80
2019-04-25T21:32:57.221Z,13.80
2019-04-25T21:35:39.390Z,13.70
2019-04-25T21:38:21.346Z,13.70
2019-04-25T21:44:11.573Z,13.80
2019-04-25T21:46:53.701Z,13.80
2019-04-25T21:49:36.791Z,13.80
2019-04-25T21:52:18.692Z,13.80
2019-04-25T21:55:01.537Z,13.80
2019-04-25T21:57:43.509Z,13.80
2019-04-25T22:00:45.287Z,13.80
2019-04-25T22:03:28.032Z,13.80
2019-04-25T22:06:10.373Z,13.70
2019-04-25T22:08:52.272Z,13.60
2019-04-25T22:11:35.052Z,13.50
2019-04-25T22:14:18.225Z,13.50
2019-04-25T22:17:00.905Z,13.40
2019-04-25T22:19:43.712Z,13.30
2019-04-25T22:22:26.055Z,13.30
2019-04-25T22:25:08.070Z,13.30
2019-04-25T22:27:50.566Z,13.20
2019-04-25T22:30:32.455Z,13.10
2019-04-25T22:33:33.726Z,13.10
2019-04-25T22:36:18.023Z,13.00
2019-04-25T22:39:19.278Z,13.00
2019-04-25T22:42:01.990Z,12.90
2019-04-25T22:44:44.798Z,12.90
2019-04-25T22:47:27.053Z,13.00
2019-04-25T22:50:09.156Z,12.90
2019-04-25T22:52:51.777Z,12.90
2019-04-25T22:55:34.285Z,12.80
2019-04-25T22:58:16.800Z,12.70
2019-04-25T23:00:59.014Z,12.70
2019-04-25T23:03:43.566Z,12.70
2019-04-25T23:06:25.869Z,12.70
2019-04-25T23:09:08.416Z,12.70
2019-04-25T23:11:50.344Z,12.70
2019-04-25T23:14:32.454Z,12.70
2019-04-25T23:17:14.572Z,12.70
2019-04-25T23:19:56.733Z,12.60
2019-04-25T23:22:38.548Z,12.60
2019-04-25T23:25:26.011Z,12.60
2019-04-25T23:28:13.925Z,12.50
2019-04-25T23:31:20.485Z,12.40
2019-04-25T23:34:02.441Z,12.40
2019-04-25T23:36:44.603Z,12.40
2019-04-25T23:39:26.412Z,12.40
2019-04-25T23:42:09.322Z,12.40
2019-04-25T23:44:52.069Z,12.30
2019-04-25T23:47:34.066Z,12.30
2019-04-25T23:50:16.849Z,12.30
2019-04-25T23:52:59.387Z,12.30
2019-04-25T23:55:41.667Z,12.20
2019-04-25T23:58:23.997Z,12.20
